createdAt,value
2018-11-21T00:02:09.480Z,3.80
2018-11-21T00:04:58.171Z,4.00
2018-11-21T00:07:46.473Z,3.70
2018-11-21T00:10:34.802Z,3.80
2018-11-21T00:13:23.362Z,3.80
2018-11-21T00:16:11.690Z,3.80
2018-11-21T00:19:00.741Z,3.90
2018-11-21T00:21:48.424Z,3.70
2018-11-21T00:24:36.776Z,3.80
2018-11-21T00:27:25.447Z,3.80
2018-11-21T00:30:15.154Z,3.90
2018-11-21T00:33:03.475Z,3.90
2018-11-21T00:35:51.802Z,3.90
2018-11-21T00:38:40.134Z,3.90
2018-11-21T00:41:09.433Z,3.80
2018-11-21T00:43:57.777Z,3.80
2018-11-21T00:46:46.133Z,3.80
2018-11-21T00:49:34.788Z,3.80
2018-11-21T00:52:23.128Z,3.80
2018-11-21T00:55:11.789Z,3.80
2018-11-21T00:58:00.107Z,4.00
2018-11-21T01:00:48.464Z,3.80
2018-11-21T01:03:37.335Z,3.70
2018-11-21T01:06:25.692Z,3.80
2018-11-21T01:09:14.305Z,3.70
2018-11-21T01:12:02.869Z,3.70
2018-11-21T01:14:51.183Z,3.80
2018-11-21T01:17:39.629Z,3.70
2018-11-21T01:20:27.930Z,3.70
2018-11-21T01:23:16.586Z,3.80
2018-11-21T01:26:04.916Z,3.80
2018-11-21T01:28:53.509Z,3.70
2018-11-21T01:31:41.829Z,3.60
2018-11-21T01:34:30.159Z,3.70
2018-11-21T01:37:18.472Z,3.70
2018-11-21T01:40:07.533Z,3.70
2018-11-21T01:42:40.629Z,3.80
2018-11-21T01:45:28.955Z,3.80
2018-11-21T01:48:17.292Z,3.70
2018-11-21T01:51:05.711Z,4.00
2018-11-21T01:53:54.065Z,3.90
2018-11-21T01:56:42.686Z,3.80
2018-11-21T01:59:31.283Z,3.70
2018-11-21T02:02:19.606Z,3.70
2018-11-21T02:05:07.934Z,3.60
2018-11-21T02:07:56.243Z,3.70
2018-11-21T02:10:44.555Z,3.70
2018-11-21T02:13:32.893Z,3.70
2018-11-21T02:16:21.224Z,3.70
2018-11-21T02:19:09.562Z,3.70
2018-11-21T02:21:57.904Z,3.70
2018-11-21T02:24:46.274Z,3.60
2018-11-21T02:27:34.605Z,3.90
2018-11-21T02:30:23.198Z,3.70
2018-11-21T02:33:11.527Z,3.70
2018-11-21T02:35:59.893Z,3.60
2018-11-21T02:38:48.236Z,3.60
2018-11-21T02:41:36.585Z,2.30
2018-11-21T02:44:25.164Z,3.80
2018-11-21T02:47:13.483Z,3.60
2018-11-21T02:50:01.844Z,3.60
2018-11-21T02:52:50.235Z,3.90
2018-11-21T02:55:38.609Z,3.70
2018-11-21T02:58:26.952Z,3.60
2018-11-21T03:01:15.606Z,3.60
2018-11-21T03:04:03.936Z,3.60
2018-11-21T03:10:00.212Z,3.70
2018-11-21T03:12:48.612Z,3.50
2018-11-21T03:15:37.257Z,3.60
2018-11-21T03:18:25.926Z,3.60
2018-11-21T03:21:14.237Z,3.70
2018-11-21T03:24:02.538Z,3.60
2018-11-21T03:26:51.484Z,2.30
2018-11-21T03:29:39.817Z,3.50
2018-11-21T03:32:28.137Z,3.50
2018-11-21T03:35:16.470Z,3.50
2018-11-21T03:38:04.811Z,3.70
2018-11-21T03:40:53.133Z,3.50
2018-11-21T03:43:22.360Z,3.60
2018-11-21T03:46:10.694Z,3.50
2018-11-21T03:48:59.032Z,3.60
2018-11-21T03:51:47.370Z,3.60
2018-11-21T03:54:35.705Z,3.70
2018-11-21T03:57:24.037Z,3.60
2018-11-21T04:00:13.587Z,3.60
2018-11-21T04:03:01.946Z,3.60
2018-11-21T04:05:50.274Z,3.90
2018-11-21T04:08:42.466Z,3.50
2018-11-21T04:11:26.962Z,3.50
2018-11-21T04:14:15.280Z,3.80
2018-11-21T04:17:03.597Z,3.60
2018-11-21T04:19:51.915Z,3.60
2018-11-21T04:22:40.286Z,3.60
2018-11-21T04:25:28.651Z,3.60
2018-11-21T04:28:16.988Z,3.60
2018-11-21T04:31:05.378Z,3.60
2018-11-21T04:33:55.959Z,3.60
2018-11-21T04:36:44.315Z,3.50
2018-11-21T04:39:32.907Z,3.60
2018-11-21T04:42:21.550Z,3.60
2018-11-21T04:45:10.990Z,3.60
2018-11-21T04:47:59.295Z,3.50
2018-11-21T04:50:47.621Z,3.60
2018-11-21T04:53:35.944Z,3.50
2018-11-21T04:56:24.280Z,3.60
2018-11-21T04:59:12.610Z,3.60
2018-11-21T05:02:00.938Z,3.70
2018-11-21T05:04:49.270Z,3.60
2018-11-21T05:07:37.659Z,3.90
2018-11-21T05:10:26.005Z,3.50
2018-11-21T05:13:14.679Z,3.60
2018-11-21T05:16:03.014Z,3.60
2018-11-21T05:18:51.364Z,3.50
2018-11-21T05:21:39.946Z,3.40
2018-11-21T05:24:28.277Z,3.60
2018-11-21T05:27:16.846Z,3.40
2018-11-21T05:30:05.884Z,3.40
2018-11-21T05:32:54.228Z,3.40
2018-11-21T05:35:42.562Z,3.40
2018-11-21T05:38:31.139Z,3.60
2018-11-21T05:41:00.433Z,3.30
2018-11-21T05:43:48.744Z,3.40
2018-11-21T05:46:37.069Z,3.40
2018-11-21T05:49:25.406Z,3.60
2018-11-21T05:52:13.763Z,3.30
2018-11-21T05:55:02.178Z,3.50
2018-11-21T05:57:50.525Z,3.50
2018-11-21T06:00:38.853Z,3.50
2018-11-21T06:03:27.198Z,3.40
2018-11-21T06:06:15.548Z,3.30
2018-11-21T06:09:05.011Z,3.20
2018-11-21T06:11:53.366Z,3.20
2018-11-21T06:14:41.706Z,3.50
2018-11-21T06:17:30.310Z,3.30
2018-11-21T06:20:18.632Z,3.10
2018-11-21T06:23:06.968Z,3.40
2018-11-21T06:25:55.607Z,3.10
2018-11-21T06:28:43.944Z,3.10
2018-11-21T06:31:32.280Z,3.10
2018-11-21T06:34:20.618Z,3.00
2018-11-21T06:36:49.933Z,2.90
2018-11-21T06:39:38.283Z,3.00
2018-11-21T06:42:27.002Z,3.10
2018-11-21T06:45:15.344Z,3.10
2018-11-21T06:48:03.673Z,3.00
2018-11-21T06:50:52.000Z,2.90
2018-11-21T06:53:40.341Z,3.00
2018-11-21T06:56:28.662Z,3.00
2018-11-21T06:59:17.066Z,3.00
2018-11-21T07:02:05.536Z,3.10
2018-11-21T07:04:53.887Z,3.00
2018-11-21T07:07:42.467Z,3.00
2018-11-21T07:10:31.144Z,3.10
2018-11-21T07:13:19.505Z,2.90
2018-11-21T07:16:07.844Z,5.00
2018-11-21T07:18:56.205Z,3.00
2018-11-21T07:21:44.538Z,3.00
2018-11-21T07:24:33.214Z,3.10
2018-11-21T07:27:21.559Z,3.00
2018-11-21T07:30:11.053Z,3.10
2018-11-21T07:32:59.645Z,3.00
2018-11-21T07:35:48.200Z,1.70
2018-11-21T07:38:36.548Z,2.90
2018-11-21T07:41:24.859Z,2.90
2018-11-21T07:44:13.192Z,2.90
2018-11-21T07:47:01.596Z,3.20
2018-11-21T07:49:50.145Z,1.00
2018-11-21T07:52:38.465Z,2.80
2018-11-21T07:55:26.786Z,2.80
2018-11-21T07:57:58.145Z,2.80
2018-11-21T08:01:24.351Z,2.80
2018-11-21T08:04:16.990Z,2.80
2018-11-21T08:07:24.299Z,2.90
2018-11-21T08:10:31.463Z,3.00
2018-11-21T08:13:38.604Z,2.80
2018-11-21T08:16:45.748Z,2.90
2018-11-21T08:19:52.924Z,2.70
2018-11-21T08:23:00.070Z,2.60
2018-11-21T08:26:07.486Z,2.60
2018-11-21T08:28:55.847Z,2.60
2018-11-21T08:31:44.264Z,2.60
2018-11-21T08:34:32.591Z,2.60
2018-11-21T08:37:20.911Z,2.60
2018-11-21T08:40:09.346Z,2.70
2018-11-21T08:42:57.701Z,2.50
2018-11-21T08:45:46.148Z,2.60
2018-11-21T08:48:34.482Z,2.70
2018-11-21T08:51:23.104Z,2.20
2018-11-21T08:54:11.435Z,2.80
2018-11-21T08:56:59.792Z,2.80
2018-11-21T08:59:48.119Z,3.70
2018-11-21T09:02:36.474Z,2.90
2018-11-21T09:05:24.814Z,1.70
2018-11-21T09:08:13.482Z,2.80
2018-11-21T09:11:01.820Z,2.90
2018-11-21T09:13:53.176Z,3.00
2018-11-21T09:16:38.530Z,2.90
2018-11-21T09:19:26.849Z,2.90
2018-11-21T09:22:15.318Z,2.90
2018-11-21T09:25:04.226Z,3.20
2018-11-21T09:27:52.548Z,2.90
2018-11-21T09:30:40.913Z,3.00
2018-11-21T09:33:29.244Z,2.40
2018-11-21T09:36:17.569Z,3.20
2018-11-21T09:39:07.970Z,3.30
2018-11-21T09:41:56.348Z,3.30
2018-11-21T09:44:44.683Z,3.30
2018-11-21T09:47:33.257Z,3.30
2018-11-21T09:50:23.546Z,3.20
2018-11-21T09:53:11.779Z,3.40
2018-11-21T09:56:00.107Z,3.40
2018-11-21T09:58:48.455Z,3.30
2018-11-21T10:01:55.836Z,3.40
2018-11-21T10:04:44.456Z,3.50
2018-11-21T10:07:32.798Z,3.40
2018-11-21T10:10:21.145Z,3.50
2018-11-21T10:13:09.527Z,3.40
2018-11-21T10:16:01.014Z,3.60
2018-11-21T10:19:05.026Z,3.50
2018-11-21T10:21:53.370Z,3.50
2018-11-21T10:24:41.699Z,3.50
2018-11-21T10:27:29.994Z,3.40
2018-11-21T10:30:18.316Z,3.40
2018-11-21T10:33:06.685Z,3.40
2018-11-21T10:35:55.024Z,3.50
2018-11-21T10:38:43.406Z,3.50
2018-11-21T10:41:31.743Z,3.50
2018-11-21T10:44:20.091Z,3.50
2018-11-21T10:47:08.435Z,3.50
2018-11-21T10:49:56.765Z,3.70
2018-11-21T10:52:45.098Z,3.60
2018-11-21T10:55:34.359Z,3.60
2018-11-21T10:58:22.682Z,3.70
2018-11-21T11:01:29.799Z,3.60
2018-11-21T11:04:22.905Z,3.50
2018-11-21T11:07:30.068Z,3.60
2018-11-21T11:10:37.167Z,3.10
2018-11-21T11:13:20.421Z,3.70
2018-11-21T11:16:08.493Z,3.80
2018-11-21T11:18:56.781Z,3.80
2018-11-21T11:21:44.928Z,3.80
2018-11-21T11:25:01.189Z,3.80
2018-11-21T11:27:49.931Z,4.10
2018-11-21T11:30:37.985Z,4.00
2018-11-21T11:33:26.022Z,3.80
2018-11-21T11:36:14.079Z,3.90
2018-11-21T11:39:03.189Z,3.80
2018-11-21T11:42:10.316Z,3.80
2018-11-21T11:44:58.422Z,3.80
2018-11-21T11:47:47.702Z,3.80
2018-11-21T11:50:35.748Z,3.80
2018-11-21T11:53:24.097Z,3.80
2018-11-21T11:56:31.251Z,3.90
2018-11-21T11:59:38.414Z,3.80
2018-11-21T12:02:38.106Z,3.80
2018-11-21T12:05:29.801Z,1.60
2018-11-21T12:08:17.841Z,4.00
2018-11-21T12:11:24.980Z,4.00
2018-11-21T12:14:13.151Z,4.00
2018-11-21T12:17:01.229Z,3.90
2018-11-21T12:19:49.311Z,3.90
2018-11-21T12:22:25.751Z,4.00
2018-11-21T12:25:13.850Z,4.00
2018-11-21T12:28:20.995Z,4.00
2018-11-21T12:31:09.065Z,4.00
2018-11-21T12:34:16.216Z,4.00
2018-11-21T12:40:16.012Z,4.00
2018-11-21T12:43:25.862Z,3.90
2018-11-21T12:46:33.262Z,3.70
2018-11-21T12:49:40.737Z,3.80
2018-11-21T12:52:47.049Z,3.80
2018-11-21T12:55:54.251Z,3.90
2018-11-21T12:59:01.395Z,4.00
2018-11-21T13:02:08.556Z,2.50
2018-11-21T13:05:15.701Z,4.00
2018-11-21T13:08:22.839Z,3.90
2018-11-21T13:11:21.139Z,3.90
2018-11-21T13:14:28.265Z,3.80
2018-11-21T13:17:35.650Z,5.50
2018-11-21T13:20:42.778Z,3.80
2018-11-21T13:23:49.949Z,3.60
2018-11-21T13:26:57.094Z,3.70
2018-11-21T13:30:04.271Z,3.50
2018-11-21T13:33:11.418Z,3.60
2018-11-21T13:36:18.617Z,3.50
2018-11-21T13:39:28.823Z,3.50
2018-11-21T13:42:35.957Z,3.60
2018-11-21T13:45:43.122Z,3.60
2018-11-21T13:48:55.523Z,3.70
2018-11-21T13:51:57.420Z,3.90
2018-11-21T13:55:04.550Z,3.90
2018-11-21T13:57:53.119Z,3.70
2018-11-21T14:00:41.456Z,3.60
2018-11-21T14:03:30.565Z,3.40
2018-11-21T14:06:19.125Z,2.60
2018-11-21T14:09:09.405Z,3.40
2018-11-21T14:11:57.946Z,3.60
2018-11-21T14:14:46.960Z,3.50
2018-11-21T14:17:35.299Z,3.40
2018-11-21T14:20:23.665Z,3.30
2018-11-21T14:23:12.266Z,3.40
2018-11-21T14:26:00.603Z,3.60
2018-11-21T14:28:49.165Z,3.30
2018-11-21T14:31:37.490Z,3.20
2018-11-21T14:34:25.855Z,3.40
2018-11-21T14:37:14.183Z,3.30
2018-11-21T14:40:02.873Z,3.40
2018-11-21T14:42:51.198Z,3.30
2018-11-21T14:45:39.537Z,4.40
2018-11-21T14:48:27.862Z,3.40
2018-11-21T14:51:16.242Z,3.30
2018-11-21T14:53:45.472Z,3.50
2018-11-21T14:56:33.846Z,3.50
2018-11-21T14:59:22.280Z,3.60
2018-11-21T15:02:10.611Z,3.40
2018-11-21T15:04:58.955Z,3.20
2018-11-21T15:07:47.914Z,3.20
2018-11-21T15:10:36.228Z,3.30
2018-11-21T15:13:24.585Z,3.30
2018-11-21T15:16:12.926Z,3.20
2018-11-21T15:19:01.575Z,3.20
2018-11-21T15:21:49.901Z,3.10
2018-11-21T15:24:38.208Z,3.20
2018-11-21T15:27:26.525Z,3.40
2018-11-21T15:30:17.067Z,3.30
2018-11-21T15:33:05.890Z,3.20
2018-11-21T15:35:54.253Z,3.30
2018-11-21T15:38:42.807Z,3.30
2018-11-21T15:41:31.188Z,3.30
2018-11-21T15:44:19.976Z,3.20
2018-11-21T15:47:08.297Z,3.30
2018-11-21T15:49:56.960Z,3.30
2018-11-21T15:52:52.754Z,3.30
2018-11-21T15:55:33.999Z,3.20
2018-11-21T15:58:22.566Z,3.50
2018-11-21T16:01:10.901Z,3.30
2018-11-21T16:03:59.455Z,3.30
2018-11-21T16:06:47.860Z,3.60
2018-11-21T16:09:36.177Z,2.30
2018-11-21T16:12:24.514Z,3.30
2018-11-21T16:15:14.156Z,3.20
2018-11-21T16:18:02.771Z,3.10
2018-11-21T16:20:56.592Z,3.10
2018-11-21T16:23:44.937Z,3.20
2018-11-21T16:26:33.313Z,3.40
2018-11-21T16:29:21.664Z,3.50
2018-11-21T16:32:10.055Z,3.30
2018-11-21T16:34:58.410Z,3.20
2018-11-21T16:37:46.762Z,3.20
2018-11-21T16:40:35.942Z,3.10
2018-11-21T16:43:24.280Z,3.10
2018-11-21T16:46:12.885Z,1.30
2018-11-21T16:49:01.294Z,3.10
2018-11-21T16:51:49.636Z,3.00
2018-11-21T16:54:37.989Z,3.30
2018-11-21T16:57:26.334Z,3.30
2018-11-21T17:00:16.824Z,3.40
2018-11-21T17:03:05.244Z,3.20
2018-11-21T17:05:53.585Z,3.20
2018-11-21T17:08:42.178Z,3.20
2018-11-21T17:11:30.490Z,3.20
2018-11-21T17:14:18.839Z,3.40
2018-11-21T17:17:07.501Z,3.20
2018-11-21T17:19:55.823Z,3.20
2018-11-21T17:22:44.513Z,2.50
2018-11-21T17:25:34.516Z,3.20
2018-11-21T17:28:23.210Z,3.20
2018-11-21T17:31:11.630Z,3.20
2018-11-21T17:33:59.988Z,3.20
2018-11-21T17:39:43.104Z,3.30
2018-11-21T17:42:12.655Z,3.20
2018-11-21T17:45:00.992Z,3.20
2018-11-21T17:47:49.571Z,3.20
2018-11-21T17:50:38.224Z,3.10
2018-11-21T17:53:26.921Z,3.10
2018-11-21T17:56:15.274Z,3.20
2018-11-21T17:59:03.639Z,3.10
2018-11-21T18:01:51.981Z,3.20
2018-11-21T18:04:40.368Z,3.20
2018-11-21T18:07:28.738Z,3.00
2018-11-21T18:10:35.924Z,3.00
2018-11-21T18:13:24.487Z,3.00
2018-11-21T18:16:12.831Z,3.40
2018-11-21T18:19:01.151Z,3.20
2018-11-21T18:21:49.499Z,3.00
2018-11-21T18:24:49.442Z,3.20
2018-11-21T18:27:39.898Z,3.00
2018-11-21T18:30:35.356Z,3.20
2018-11-21T18:33:23.730Z,3.10
2018-11-21T18:36:12.121Z,3.00
2018-11-21T18:38:41.619Z,3.10
2018-11-21T18:41:29.986Z,3.10
2018-11-21T18:44:18.317Z,3.10
2018-11-21T18:47:06.783Z,3.20
2018-11-21T18:49:55.138Z,3.00
2018-11-21T18:52:43.675Z,3.00
2018-11-21T18:55:51.085Z,0.90
2018-11-21T18:58:44.559Z,3.10
2018-11-21T19:01:32.878Z,3.00
2018-11-21T19:04:21.207Z,3.00
2018-11-21T19:07:09.566Z,2.90
2018-11-21T19:09:57.916Z,2.90
2018-11-21T19:12:46.206Z,3.00
2018-11-21T19:15:34.544Z,3.00
2018-11-21T19:18:22.858Z,3.00
2018-11-21T19:21:11.272Z,2.90
2018-11-21T19:23:59.600Z,2.90
2018-11-21T19:26:47.921Z,2.80
2018-11-21T19:29:36.234Z,2.80
2018-11-21T19:32:24.548Z,3.00
2018-11-21T19:35:12.866Z,3.20
2018-11-21T19:38:01.201Z,3.00
2018-11-21T19:40:49.545Z,3.00
2018-11-21T19:43:18.796Z,3.60
2018-11-21T19:46:07.200Z,3.00
2018-11-21T19:48:55.738Z,2.90
2018-11-21T19:51:44.405Z,2.90
2018-11-21T19:54:25.398Z,2.80
2018-11-21T19:57:06.178Z,2.90
2018-11-21T19:59:47.287Z,2.90
2018-11-21T20:02:28.509Z,2.80
2018-11-21T20:05:10.531Z,3.00
2018-11-21T20:07:41.010Z,2.70
2018-11-21T20:10:29.355Z,2.80
2018-11-21T20:13:05.624Z,2.80
2018-11-21T20:15:54.010Z,2.70
2018-11-21T20:18:42.650Z,2.60
2018-11-21T20:21:31.276Z,2.60
2018-11-21T20:24:19.585Z,2.90
2018-11-21T20:27:07.893Z,2.70
2018-11-21T20:29:56.308Z,2.60
2018-11-21T20:32:44.662Z,2.60
2018-11-21T20:35:32.984Z,2.80
2018-11-21T20:38:21.344Z,2.60
2018-11-21T20:41:09.673Z,2.70
2018-11-21T20:43:57.981Z,2.70
2018-11-21T20:46:46.313Z,2.90
2018-11-21T20:49:34.892Z,2.70
2018-11-21T20:52:23.236Z,2.70
2018-11-21T20:55:12.430Z,2.90
2018-11-21T20:58:00.754Z,2.80
2018-11-21T21:00:49.081Z,2.80
2018-11-21T21:03:37.643Z,2.70
2018-11-21T21:06:25.971Z,2.90
2018-11-21T21:09:15.386Z,3.00
2018-11-21T21:12:03.694Z,2.60
2018-11-21T21:14:52.044Z,2.80
2018-11-21T21:17:41.034Z,2.60
2018-11-21T21:20:29.595Z,2.70
2018-11-21T21:23:17.908Z,2.70
2018-11-21T21:26:06.425Z,2.60
2018-11-21T21:28:55.028Z,2.70
2018-11-21T21:31:43.350Z,2.50
2018-11-21T21:34:31.657Z,2.50
2018-11-21T21:37:19.965Z,2.60
2018-11-21T21:40:09.265Z,2.60
2018-11-21T21:42:57.576Z,2.50
2018-11-21T21:45:46.204Z,2.50
2018-11-21T21:48:34.537Z,2.70
2018-11-21T21:51:22.852Z,2.50
2018-11-21T21:54:11.174Z,2.50
2018-11-21T21:57:03.906Z,2.40
2018-11-21T21:59:47.840Z,2.40
2018-11-21T22:02:36.187Z,2.40
2018-11-21T22:05:24.786Z,2.30
2018-11-21T22:08:13.471Z,2.40
2018-11-21T22:11:01.814Z,2.70
2018-11-21T22:13:50.134Z,2.60
2018-11-21T22:16:38.896Z,2.60
2018-11-21T22:19:27.827Z,2.50
2018-11-21T22:22:16.159Z,2.50
2018-11-21T22:25:04.464Z,2.50
2018-11-21T22:27:52.833Z,2.50
2018-11-21T22:30:41.473Z,2.40
2018-11-21T22:33:29.825Z,2.40
2018-11-21T22:36:18.189Z,2.40
2018-11-21T22:39:08.431Z,2.40
2018-11-21T22:41:57.358Z,2.40
2018-11-21T22:44:45.681Z,2.40
2018-11-21T22:47:34.017Z,2.40
2018-11-21T22:50:23.635Z,2.60
2018-11-21T22:53:11.945Z,2.40
2018-11-21T22:56:00.254Z,2.50
2018-11-21T22:58:48.807Z,2.40
2018-11-21T23:01:37.414Z,2.30
2018-11-21T23:04:26.115Z,2.40
2018-11-21T23:07:14.473Z,2.30
2018-11-21T23:10:02.876Z,2.40
2018-11-21T23:12:51.174Z,2.50
2018-11-21T23:15:40.067Z,2.50
2018-11-21T23:18:28.406Z,2.50
2018-11-21T23:21:16.726Z,2.40
2018-11-21T23:24:05.045Z,2.30
2018-11-21T23:26:53.362Z,2.70
2018-11-21T23:29:41.912Z,2.70
2018-11-21T23:32:30.266Z,2.60
2018-11-21T23:35:19.807Z,1.80
2018-11-21T23:38:08.138Z,2.60
2018-11-21T23:40:56.450Z,2.70
2018-11-21T23:43:26.012Z,2.70
2018-11-21T23:46:14.333Z,2.60
2018-11-21T23:49:02.675Z,1.40
2018-11-21T23:51:50.990Z,2.50
2018-11-21T23:54:39.292Z,2.60
2018-11-21T23:57:27.629Z,2.70
